sensor_id;sensor_type;location;lat;lon;timestamp;temperature;humidity
3424;DHT22;72707;50.120;8.500;2023-09-18T07:00:17;18.70;1.00
3424;DHT22;72707;50.120;8.500;2023-09-18T07:02:46;18.70;1.00
3424;DHT22;72707;50.120;8.500;2023-09-18T07:05:12;18.70;1.00
3424;DHT22;72707;50.120;8.500;2023-09-18T07:07:37;18.70;1.00
3424;DHT22;72707;50.120;8.500;2023-09-18T07:10:03;18.80;1.00
3424;DHT22;72707;50.120;8.500;2023-09-18T07:12:29;18.80;1.00
3424;DHT22;72707;50.120;8.500;2023-09-18T07:14:55;18.90;1.00
3424;DHT22;72707;50.120;8.500;2023-09-18T07:17:20;18.90;1.00
3424;DHT22;72707;50.120;8.500;2023-09-18T07:19:46;18.90;1.00
3424;DHT22;72707;50.120;8.500;2023-09-18T07:22:11;19.00;99.90
3424;DHT22;72707;50.120;8.500;2023-09-18T07:24:37;19.00;99.90
3424;DHT22;72707;50.120;8.500;2023-09-18T07:27:06;19.10;64.00
3424;DHT22;72707;50.120;8.500;2023-09-18T07:29:33;19.10;1.00
3424;DHT22;72707;50.120;8.500;2023-09-18T07:32:00;19.10;40.60
3424;DHT22;72707;50.120;8.500;2023-09-18T07:34:27;19.10;3.10
3424;DHT22;72707;50.120;8.500;2023-09-18T07:36:52;19.10;11.20
3424;DHT22;72707;50.120;8.500;2023-09-18T07:39:20;19.20;1.00
3424;DHT22;72707;50.120;8.500;2023-09-18T07:41:46;19.20;1.00
3424;DHT22;72707;50.120;8.500;2023-09-18T07:44:18;19.20;1.00
3424;DHT22;72707;50.120;8.500;2023-09-18T07:46:43;19.30;1.00
3424;DHT22;72707;50.120;8.500;2023-09-18T07:49:09;19.30;1.00
3424;DHT22;72707;50.120;8.500;2023-09-18T07:51:34;19.40;1.00
3424;DHT22;72707;50.120;8.500;2023-09-18T07:54:03;19.40;1.00
3424;DHT22;72707;50.120;8.500;2023-09-18T07:56:29;19.50;1.00
3424;DHT22;72707;50.120;8.500;2023-09-18T07:59:00;19.60;32.80
3424;DHT22;72707;50.120;8.500;2023-09-18T08:01:26;19.70;1.00
3424;DHT22;72707;50.120;8.500;2023-09-18T08:03:51;19.70;1.00
3424;DHT22;72707;50.120;8.500;2023-09-18T08:06:17;19.80;1.00
3424;DHT22;72707;50.120;8.500;2023-09-18T08:08:44;19.80;1.00
3424;DHT22;72707;50.120;8.500;2023-09-18T08:11:10;19.90;99.90
3424;DHT22;72707;50.120;8.500;2023-09-18T08:13:36;20.00;82.10
3424;DHT22;72707;50.120;8.500;2023-09-18T08:16:05;20.00;1.00
3424;DHT22;72707;50.120;8.500;2023-09-18T08:18:32;20.10;1.00
3424;DHT22;72707;50.120;8.500;2023-09-18T08:20:58;20.20;1.00
3424;DHT22;72707;50.120;8.500;2023-09-18T08:23:27;20.30;1.00
3424;DHT22;72707;50.120;8.500;2023-09-18T08:25:53;20.50;1.00
3424;DHT22;72707;50.120;8.500;2023-09-18T08:28:21;20.60;1.00
3424;DHT22;72707;50.120;8.500;2023-09-18T08:30:47;20.60;1.00
3424;DHT22;72707;50.120;8.500;2023-09-18T08:33:13;20.70;1.00
3424;DHT22;72707;50.120;8.500;2023-09-18T08:35:39;20.80;1.00
3424;DHT22;72707;50.120;8.500;2023-09-18T08:38:05;20.80;99.90
3424;DHT22;72707;50.120;8.500;2023-09-18T08:40:33;20.90;99.90
3424;DHT22;72707;50.120;8.500;2023-09-18T08:42:59;20.90;99.90
3424;DHT22;72707;50.120;8.500;2023-09-18T08:45:40;20.90;99.90
3424;DHT22;72707;50.120;8.500;2023-09-18T08:48:09;21.00;14.50
3424;DHT22;72707;50.120;8.500;2023-09-18T08:50:35;21.00;1.00
3424;DHT22;72707;50.120;8.500;2023-09-18T08:53:01;20.90;1.00
3424;DHT22;72707;50.120;8.500;2023-09-18T08:55:31;21.00;1.00
3424;DHT22;72707;50.120;8.500;2023-09-18T08:57:58;21.10;1.00
3424;DHT22;72707;50.120;8.500;2023-09-18T09:02:51;21.10;1.00
3424;DHT22;72707;50.120;8.500;2023-09-18T09:10:11;21.00;1.00
3424;DHT22;72707;50.120;8.500;2023-09-18T09:12:53;21.00;1.00
3424;DHT22;72707;50.120;8.500;2023-09-18T09:15:20;21.00;99.90
3424;DHT22;72707;50.120;8.500;2023-09-18T09:17:46;21.00;99.90
3424;DHT22;72707;50.120;8.500;2023-09-18T09:20:14;20.90;65.30
3424;DHT22;72707;50.120;8.500;2023-09-18T09:22:41;20.90;1.00
3424;DHT22;72707;50.120;8.500;2023-09-18T09:25:25;21.10;99.90
3424;DHT22;72707;50.120;8.500;2023-09-18T09:27:52;21.10;99.90
3424;DHT22;72707;50.120;8.500;2023-09-18T09:30:25;21.20;99.90
3424;DHT22;72707;50.120;8.500;2023-09-18T09:32:53;21.20;99.90
3424;DHT22;72707;50.120;8.500;2023-09-18T09:35:24;21.20;99.90
3424;DHT22;72707;50.120;8.500;2023-09-18T09:37:53;21.20;99.90
3424;DHT22;72707;50.120;8.500;2023-09-18T09:40:22;21.20;99.90
3424;DHT22;72707;50.120;8.500;2023-09-18T09:42:52;21.20;99.90
3424;DHT22;72707;50.120;8.500;2023-09-18T09:45:19;21.10;99.90
3424;DHT22;72707;50.120;8.500;2023-09-18T09:47:45;21.20;99.90
3424;DHT22;72707;50.120;8.500;2023-09-18T09:50:13;21.20;99.90
3424;DHT22;72707;50.120;8.500;2023-09-18T09:52:49;21.30;99.90
3424;DHT22;72707;50.120;8.500;2023-09-18T09:55:22;21.40;99.90
3424;DHT22;72707;50.120;8.500;2023-09-18T09:57:53;21.40;99.90
3424;DHT22;72707;50.120;8.500;2023-09-18T10:00:52;21.30;99.90
3424;DHT22;72707;50.120;8.500;2023-09-18T10:03:20;21.30;99.90
3424;DHT22;72707;50.120;8.500;2023-09-18T10:05:51;21.50;99.90
3424;DHT22;72707;50.120;8.500;2023-09-18T10:08:25;21.40;99.90
3424;DHT22;72707;50.120;8.500;2023-09-18T10:10:55;21.40;99.90
3424;DHT22;72707;50.120;8.500;2023-09-18T10:13:46;21.70;99.90
3424;DHT22;72707;50.120;8.500;2023-09-18T10:16:13;21.60;99.90
3424;DHT22;72707;50.120;8.500;2023-09-18T10:21:33;21.80;34.20
3424;DHT22;72707;50.120;8.500;2023-09-18T10:24:19;21.90;1.00
3424;DHT22;72707;50.120;8.500;2023-09-18T10:26:56;21.70;1.00
3424;DHT22;72707;50.120;8.500;2023-09-18T10:29:23;21.70;30.50
3424;DHT22;72707;50.120;8.500;2023-09-18T10:31:56;21.80;9.50
3424;DHT22;72707;50.120;8.500;2023-09-18T10:34:23;21.80;1.00
3424;DHT22;72707;50.120;8.500;2023-09-18T10:36:53;21.80;1.00
3424;DHT22;72707;50.120;8.500;2023-09-18T10:39:20;21.60;1.00
3424;DHT22;72707;50.120;8.500;2023-09-18T10:41:51;21.70;1.00
3424;DHT22;72707;50.120;8.500;2023-09-18T10:44:18;21.80;1.00
3424;DHT22;72707;50.120;8.500;2023-09-18T10:46:53;21.80;1.00
3424;DHT22;72707;50.120;8.500;2023-09-18T10:49:20;21.90;1.00
3424;DHT22;72707;50.120;8.500;2023-09-18T10:51:54;21.90;1.00
3424;DHT22;72707;50.120;8.500;2023-09-18T10:54:24;22.00;1.00
3424;DHT22;72707;50.120;8.500;2023-09-18T10:56:51;22.00;1.00
3424;DHT22;72707;50.120;8.500;2023-09-18T10:59:17;22.10;1.00
3424;DHT22;72707;50.120;8.500;2023-09-18T11:01:43;22.10;1.00
3424;DHT22;72707;50.120;8.500;2023-09-18T11:04:10;22.30;1.00
3424;DHT22;72707;50.120;8.500;2023-09-18T11:12:02;22.40;1.00
3424;DHT22;72707;50.120;8.500;2023-09-18T11:15:04;22.40;1.00
3424;DHT22;72707;50.120;8.500;2023-09-18T11:17:59;22.40;1.00
3424;DHT22;72707;50.120;8.500;2023-09-18T11:20:26;22.50;1.00
3424;DHT22;72707;50.120;8.500;2023-09-18T11:25:41;22.40;1.00
3424;DHT22;72707;50.120;8.500;2023-09-18T11:28:12;22.40;1.00
3424;DHT22;72707;50.120;8.500;2023-09-18T11:30:54;22.10;1.00
3424;DHT22;72707;50.120;8.500;2023-09-18T11:33:37;22.10;1.00
3424;DHT22;72707;50.120;8.500;2023-09-18T11:36:08;22.20;1.00
3424;DHT22;72707;50.120;8.500;2023-09-18T11:38:59;22.30;1.00
3424;DHT22;72707;50.120;8.500;2023-09-18T11:41:31;22.40;1.00
3424;DHT22;72707;50.120;8.500;2023-09-18T11:46:46;22.40;1.00
3424;DHT22;72707;50.120;8.500;2023-09-18T11:49:14;22.20;1.00
3424;DHT22;72707;50.120;8.500;2023-09-18T11:51:40;22.20;1.00
3424;DHT22;72707;50.120;8.500;2023-09-18T11:54:07;22.10;1.00
3424;DHT22;72707;50.120;8.500;2023-09-18T11:56:33;22.30;1.00
3424;DHT22;72707;50.120;8.500;2023-09-18T11:58:59;22.50;1.00
3424;DHT22;72707;50.120;8.500;2023-09-18T12:01:25;22.60;1.00
3424;DHT22;72707;50.120;8.500;2023-09-18T12:03:54;22.50;1.00
3424;DHT22;72707;50.120;8.500;2023-09-18T12:06:20;22.50;1.00
3424;DHT22;72707;50.120;8.500;2023-09-18T12:08:46;22.60;1.00
3424;DHT22;72707;50.120;8.500;2023-09-18T12:11:12;22.70;1.00
3424;DHT22;72707;50.120;8.500;2023-09-18T12:13:42;22.70;1.00
3424;DHT22;72707;50.120;8.500;2023-09-18T12:16:08;22.70;1.00
3424;DHT22;72707;50.120;8.500;2023-09-18T12:18:35;22.80;1.00
3424;DHT22;72707;50.120;8.500;2023-09-18T12:21:05;23.00;1.00
3424;DHT22;72707;50.120;8.500;2023-09-18T12:23:38;23.10;1.00
3424;DHT22;72707;50.120;8.500;2023-09-18T12:26:06;23.50;1.00
3424;DHT22;72707;50.120;8.500;2023-09-18T12:28:33;23.60;1.00
3424;DHT22;72707;50.120;8.500;2023-09-18T12:31:00;23.80;1.00
3424;DHT22;72707;50.120;8.500;2023-09-18T12:33:33;24.70;1.00
3424;DHT22;72707;50.120;8.500;2023-09-18T12:35:59;24.80;1.00
3424;DHT22;72707;50.120;8.500;2023-09-18T12:38:25;24.90;1.00
3424;DHT22;72707;50.120;8.500;2023-09-18T12:40:53;24.90;1.00
3424;DHT22;72707;50.120;8.500;2023-09-18T12:43:20;25.40;1.00
3424;DHT22;72707;50.120;8.500;2023-09-18T12:45:48;26.70;1.00
3424;DHT22;72707;50.120;8.500;2023-09-18T12:48:14;26.70;1.00
3424;DHT22;72707;50.120;8.500;2023-09-18T12:50:40;27.00;1.00
3424;DHT22;72707;50.120;8.500;2023-09-18T12:53:14;28.20;1.00
3424;DHT22;72707;50.120;8.500;2023-09-18T12:55:41;28.40;1.00
3424;DHT22;72707;50.120;8.500;2023-09-18T12:58:11;26.70;1.00
3424;DHT22;72707;50.120;8.500;2023-09-18T13:00:36;26.80;1.00
3424;DHT22;72707;50.120;8.500;2023-09-18T13:03:05;27.00;1.00
3424;DHT22;72707;50.120;8.500;2023-09-18T13:05:31;26.70;1.00
3424;DHT22;72707;50.120;8.500;2023-09-18T13:08:04;26.70;1.00
3424;DHT22;72707;50.120;8.500;2023-09-18T13:10:48;26.50;1.00
3424;DHT22;72707;50.120;8.500;2023-09-18T13:13:19;25.40;1.00
3424;DHT22;72707;50.120;8.500;2023-09-18T13:15:46;25.40;1.00
3424;DHT22;72707;50.120;8.500;2023-09-18T13:18:13;25.10;1.00
3424;DHT22;72707;50.120;8.500;2023-09-18T13:20:41;25.10;1.00
3424;DHT22;72707;50.120;8.500;2023-09-18T13:23:07;24.90;1.00
3424;DHT22;72707;50.120;8.500;2023-09-18T13:25:40;25.20;1.00
3424;DHT22;72707;50.120;8.500;2023-09-18T13:28:10;25.80;1.00
3424;DHT22;72707;50.120;8.500;2023-09-18T13:30:37;25.70;1.00
3424;DHT22;72707;50.120;8.500;2023-09-18T13:33:08;25.90;1.00
3424;DHT22;72707;50.120;8.500;2023-09-18T13:35:38;26.50;1.00
3424;DHT22;72707;50.120;8.500;2023-09-18T13:38:04;25.90;1.00
3424;DHT22;72707;50.120;8.500;2023-09-18T13:40:35;25.20;1.00
3424;DHT22;72707;50.120;8.500;2023-09-18T13:50:22;25.10;1.00
3424;DHT22;72707;50.120;8.500;2023-09-18T13:52:47;25.50;1.00
3424;DHT22;72707;50.120;8.500;2023-09-18T14:20:59;26.50;1.00
3424;DHT22;72707;50.120;8.500;2023-09-18T15:06:31;25.90;99.90
3424;DHT22;72707;50.120;8.500;2023-09-18T15:11:23;26.00;99.90
3424;DHT22;72707;50.120;8.500;2023-09-18T15:13:49;25.90;99.90
3424;DHT22;72707;50.120;8.500;2023-09-18T15:16:16;25.90;99.90
3424;DHT22;72707;50.120;8.500;2023-09-18T15:18:42;25.60;99.90
3424;DHT22;72707;50.120;8.500;2023-09-18T15:21:08;24.70;99.90
3424;DHT22;72707;50.120;8.500;2023-09-18T15:23:35;24.80;99.90
3424;DHT22;72707;50.120;8.500;2023-09-18T15:26:01;24.60;99.90
3424;DHT22;72707;50.120;8.500;2023-09-18T15:28:26;24.70;99.90
3424;DHT22;72707;50.120;8.500;2023-09-18T15:30:54;24.60;99.90
3424;DHT22;72707;50.120;8.500;2023-09-18T15:33:21;24.30;99.90
3424;DHT22;72707;50.120;8.500;2023-09-18T15:35:48;24.30;99.90
3424;DHT22;72707;50.120;8.500;2023-09-18T15:38:14;23.80;99.90
3424;DHT22;72707;50.120;8.500;2023-09-18T15:43:08;24.20;99.90
3424;DHT22;72707;50.120;8.500;2023-09-18T15:45:34;24.20;99.90
3424;DHT22;72707;50.120;8.500;2023-09-18T15:48:03;24.10;99.90
3424;DHT22;72707;50.120;8.500;2023-09-18T15:50:30;24.20;99.90
3424;DHT22;72707;50.120;8.500;2023-09-18T15:52:56;24.30;99.90
3424;DHT22;72707;50.120;8.500;2023-09-18T15:55:22;24.10;99.90
3424;DHT22;72707;50.120;8.500;2023-09-18T15:57:48;24.20;99.90
3424;DHT22;72707;50.120;8.500;2023-09-18T16:00:15;24.00;99.90
3424;DHT22;72707;50.120;8.500;2023-09-18T16:02:43;23.90;99.90
3424;DHT22;72707;50.120;8.500;2023-09-18T16:05:09;23.80;99.90
3424;DHT22;72707;50.120;8.500;2023-09-18T16:07:36;23.50;99.90
3424;DHT22;72707;50.120;8.500;2023-09-18T16:10:03;23.60;99.90
3424;DHT22;72707;50.120;8.500;2023-09-18T16:12:30;23.50;99.90
3424;DHT22;72707;50.120;8.500;2023-09-18T16:14:55;23.40;99.90
3424;DHT22;72707;50.120;8.500;2023-09-18T16:17:21;23.20;99.90
3424;DHT22;72707;50.120;8.500;2023-09-18T16:19:46;23.20;99.90
3424;DHT22;72707;50.120;8.500;2023-09-18T16:22:12;23.10;99.90
3424;DHT22;72707;50.120;8.500;2023-09-18T16:24:42;23.00;99.90
3424;DHT22;72707;50.120;8.500;2023-09-18T16:27:08;23.00;99.90
3424;DHT22;72707;50.120;8.500;2023-09-18T16:29:36;23.00;99.90
3424;DHT22;72707;50.120;8.500;2023-09-18T16:32:01;22.80;99.90
3424;DHT22;72707;50.120;8.500;2023-09-18T16:34:28;22.70;99.90
3424;DHT22;72707;50.120;8.500;2023-09-18T16:36:53;22.60;99.90
3424;DHT22;72707;50.120;8.500;2023-09-18T16:39:19;22.60;1.00
3424;DHT22;72707;50.120;8.500;2023-09-18T16:41:47;22.50;99.90
3424;DHT22;72707;50.120;8.500;2023-09-18T16:44:15;22.50;1.00
3424;DHT22;72707;50.120;8.500;2023-09-18T16:46:41;22.50;1.00
3424;DHT22;72707;50.120;8.500;2023-09-18T16:49:07;22.50;1.00
3424;DHT22;72707;50.120;8.500;2023-09-18T16:51:35;22.50;1.00
3424;DHT22;72707;50.120;8.500;2023-09-18T16:54:01;22.50;1.00
3424;DHT22;72707;50.120;8.500;2023-09-18T16:56:26;22.30;1.00
3424;DHT22;72707;50.120;8.500;2023-09-18T16:58:52;22.30;1.00
3424;DHT22;72707;50.120;8.500;2023-09-18T17:01:20;22.30;1.00
3424;DHT22;72707;50.120;8.500;2023-09-18T17:03:47;22.20;1.00
3424;DHT22;72707;50.120;8.500;2023-09-18T17:06:15;22.10;1.00
3424;DHT22;72707;50.120;8.500;2023-09-18T17:08:41;22.00;1.00
3424;DHT22;72707;50.120;8.500;2023-09-18T17:11:07;21.90;1.00
3424;DHT22;72707;50.120;8.500;2023-09-18T17:13:32;21.90;1.00
3424;DHT22;72707;50.120;8.500;2023-09-18T17:15:59;21.80;1.00
3424;DHT22;72707;50.120;8.500;2023-09-18T17:18:25;21.80;1.00
3424;DHT22;72707;50.120;8.500;2023-09-18T17:20:51;21.70;1.00
3424;DHT22;72707;50.120;8.500;2023-09-18T17:23:17;21.70;1.00
3424;DHT22;72707;50.120;8.500;2023-09-18T17:25:43;21.60;1.00
3424;DHT22;72707;50.120;8.500;2023-09-18T17:28:10;21.60;1.00
3424;DHT22;72707;50.120;8.500;2023-09-18T17:30:36;21.60;1.00
3424;DHT22;72707;50.120;8.500;2023-09-18T17:33:02;21.60;1.00
3424;DHT22;72707;50.120;8.500;2023-09-18T17:35:29;21.50;1.00
3424;DHT22;72707;50.120;8.500;2023-09-18T17:37:55;21.50;1.00
3424;DHT22;72707;50.120;8.500;2023-09-18T17:45:16;21.20;1.00
3424;DHT22;72707;50.120;8.500;2023-09-18T17:47:42;21.00;1.00
3424;DHT22;72707;50.120;8.500;2023-09-18T17:50:09;21.00;1.00
3424;DHT22;72707;50.120;8.500;2023-09-18T17:52:34;20.90;1.00
3424;DHT22;72707;50.120;8.500;2023-09-18T17:55:01;20.80;1.00
3424;DHT22;72707;50.120;8.500;2023-09-18T17:57:32;20.80;1.00
3424;DHT22;72707;50.120;8.500;2023-09-18T18:00:03;20.70;1.00
3424;DHT22;72707;50.120;8.500;2023-09-18T18:02:30;20.40;1.00
3424;DHT22;72707;50.120;8.500;2023-09-18T18:04:56;20.30;88.10
3424;DHT22;72707;50.120;8.500;2023-09-18T18:07:22;22.90;99.90
3424;DHT22;72707;50.120;8.500;2023-09-18T18:09:48;20.20;99.90
3424;DHT22;72707;50.120;8.500;2023-09-18T18:17:05;20.00;1.00
3424;DHT22;72707;50.120;8.500;2023-09-18T18:19:32;20.00;1.00
3424;DHT22;72707;50.120;8.500;2023-09-18T18:26:50;20.10;99.90
3424;DHT22;72707;50.120;8.500;2023-09-18T18:29:19;20.10;99.90
3424;DHT22;72707;50.120;8.500;2023-09-18T18:31:45;20.10;99.90
3424;DHT22;72707;50.120;8.500;2023-09-18T18:34:11;20.00;1.00
3424;DHT22;72707;50.120;8.500;2023-09-18T18:36:40;20.10;99.90
3424;DHT22;72707;50.120;8.500;2023-09-18T18:41:31;19.90;1.00
3424;DHT22;72707;50.120;8.500;2023-09-18T18:46:23;19.90;99.90
3424;DHT22;72707;50.120;8.500;2023-09-18T18:48:50;19.90;99.90
3424;DHT22;72707;50.120;8.500;2023-09-18T18:51:16;19.90;1.00
3424;DHT22;72707;50.120;8.500;2023-09-18T18:53:44;19.90;99.90
3424;DHT22;72707;50.120;8.500;2023-09-18T18:56:10;19.80;99.90
3424;DHT22;72707;50.120;8.500;2023-09-18T18:58:38;19.80;99.90
3424;DHT22;72707;50.120;8.500;2023-09-18T19:01:04;19.70;99.90
3424;DHT22;72707;50.120;8.500;2023-09-18T19:03:33;19.70;99.90
3424;DHT22;72707;50.120;8.500;2023-09-18T19:06:04;19.70;99.90
3424;DHT22;72707;50.120;8.500;2023-09-18T19:08:35;19.80;99.90
3424;DHT22;72707;50.120;8.500;2023-09-18T19:13:36;19.80;99.90
3424;DHT22;72707;50.120;8.500;2023-09-18T19:16:07;19.70;99.90
3424;DHT22;72707;50.120;8.500;2023-09-18T19:21:07;19.70;99.90
3424;DHT22;72707;50.120;8.500;2023-09-18T19:23:34;19.60;99.90
3424;DHT22;72707;50.120;8.500;2023-09-18T19:26:00;19.60;99.90
3424;DHT22;72707;50.120;8.500;2023-09-18T19:28:26;19.60;99.90
3424;DHT22;72707;50.120;8.500;2023-09-18T19:31:01;19.60;50.00
3424;DHT22;72707;50.120;8.500;2023-09-18T19:33:28;19.70;1.00
3424;DHT22;72707;50.120;8.500;2023-09-18T19:36:05;19.70;1.00
3424;DHT22;72707;50.120;8.500;2023-09-18T19:43:38;19.70;1.00
3424;DHT22;72707;50.120;8.500;2023-09-18T19:48:32;19.60;1.00
3424;DHT22;72707;50.120;8.500;2023-09-18T19:50:57;19.50;1.00
3424;DHT22;72707;50.120;8.500;2023-09-18T19:53:26;19.40;1.00
3424;DHT22;72707;50.120;8.500;2023-09-18T19:55:53;19.30;1.00
3424;DHT22;72707;50.120;8.500;2023-09-18T19:58:21;19.70;1.00
3424;DHT22;72707;50.120;8.500;2023-09-18T20:00:48;19.20;1.00
3424;DHT22;72707;50.120;8.500;2023-09-18T20:03:15;19.20;1.00
3424;DHT22;72707;50.120;8.500;2023-09-18T20:05:40;19.10;1.00
3424;DHT22;72707;50.120;8.500;2023-09-18T20:08:07;19.10;1.00
3424;DHT22;72707;50.120;8.500;2023-09-18T20:10:32;19.00;1.00
3424;DHT22;72707;50.120;8.500;2023-09-18T20:12:59;19.00;1.00
3424;DHT22;72707;50.120;8.500;2023-09-18T20:15:25;19.00;1.00
3424;DHT22;72707;50.120;8.500;2023-09-18T20:17:50;18.90;1.00
3424;DHT22;72707;50.120;8.500;2023-09-18T20:20:18;18.90;1.00
3424;DHT22;72707;50.120;8.500;2023-09-18T20:22:46;18.80;1.00
3424;DHT22;72707;50.120;8.500;2023-09-18T20:27:41;18.70;1.00
3424;DHT22;72707;50.120;8.500;2023-09-18T20:30:08;18.60;1.00
3424;DHT22;72707;50.120;8.500;2023-09-18T20:35:11;18.60;1.00
3424;DHT22;72707;50.120;8.500;2023-09-18T20:40:17;18.60;1.00
3424;DHT22;72707;50.120;8.500;2023-09-18T20:42:43;18.60;1.00
3424;DHT22;72707;50.120;8.500;2023-09-18T20:45:09;18.60;1.00
3424;DHT22;72707;50.120;8.500;2023-09-18T20:47:35;18.60;1.00
3424;DHT22;72707;50.120;8.500;2023-09-18T20:50:01;18.60;1.00
3424;DHT22;72707;50.120;8.500;2023-09-18T20:52:28;18.70;1.00
3424;DHT22;72707;50.120;8.500;2023-09-18T20:54:54;18.70;1.00
3424;DHT22;72707;50.120;8.500;2023-09-18T20:57:19;18.60;1.00
3424;DHT22;72707;50.120;8.500;2023-09-18T21:02:20;18.60;1.00
3424;DHT22;72707;50.120;8.500;2023-09-18T21:04:46;18.40;1.00
3424;DHT22;72707;50.120;8.500;2023-09-18T21:09:48;18.50;1.00
3424;DHT22;72707;50.120;8.500;2023-09-18T21:12:15;18.40;1.00
3424;DHT22;72707;50.120;8.500;2023-09-18T21:14:40;18.40;1.00
3424;DHT22;72707;50.120;8.500;2023-09-18T21:17:07;18.20;1.00
3424;DHT22;72707;50.120;8.500;2023-09-18T21:19:33;18.80;1.00
3424;DHT22;72707;50.120;8.500;2023-09-18T21:22:00;18.20;1.00
3424;DHT22;72707;50.120;8.500;2023-09-18T21:24:29;18.20;1.00
3424;DHT22;72707;50.120;8.500;2023-09-18T21:26:56;18.10;1.00
3424;DHT22;72707;50.120;8.500;2023-09-18T21:29:22;18.00;1.00
3424;DHT22;72707;50.120;8.500;2023-09-18T21:31:52;18.00;1.00
3424;DHT22;72707;50.120;8.500;2023-09-18T21:49:53;17.20;1.00
3424;DHT22;72707;50.120;8.500;2023-09-18T21:52:18;16.90;99.90
3424;DHT22;72707;50.120;8.500;2023-09-18T21:54:45;16.80;99.90
3424;DHT22;72707;50.120;8.500;2023-09-18T21:57:13;16.60;1.00
3424;DHT22;72707;50.120;8.500;2023-09-18T22:07:26;16.70;1.00
3424;DHT22;72707;50.120;8.500;2023-09-18T22:09:52;16.60;1.00
3424;DHT22;72707;50.120;8.500;2023-09-18T22:12:21;16.50;1.00
3424;DHT22;72707;50.120;8.500;2023-09-18T22:14:46;16.50;99.90
3424;DHT22;72707;50.120;8.500;2023-09-18T22:19:42;16.40;1.00
3424;DHT22;72707;50.120;8.500;2023-09-18T22:22:09;16.30;68.50
3424;DHT22;72707;50.120;8.500;2023-09-18T22:24:37;16.30;99.90
3424;DHT22;72707;50.120;8.500;2023-09-18T22:27:04;16.20;1.00
3424;DHT22;72707;50.120;8.500;2023-09-18T22:29:32;16.20;1.00
3424;DHT22;72707;50.120;8.500;2023-09-18T22:31:58;16.20;1.00
3424;DHT22;72707;50.120;8.500;2023-09-18T22:34:24;16.20;99.90
3424;DHT22;72707;50.120;8.500;2023-09-18T22:36:49;16.20;99.90
3424;DHT22;72707;50.120;8.500;2023-09-18T22:55:52;16.10;99.90
3424;DHT22;72707;50.120;8.500;2023-09-18T22:58:20;16.20;99.90
3424;DHT22;72707;50.120;8.500;2023-09-18T23:00:46;16.20;99.90
3424;DHT22;72707;50.120;8.500;2023-09-18T23:03:12;16.20;99.90
3424;DHT22;72707;50.120;8.500;2023-09-18T23:05:39;16.20;99.90
3424;DHT22;72707;50.120;8.500;2023-09-18T23:08:10;16.20;99.90
3424;DHT22;72707;50.120;8.500;2023-09-18T23:10:37;16.20;99.90
3424;DHT22;72707;50.120;8.500;2023-09-18T23:13:04;16.20;1.00
3424;DHT22;72707;50.120;8.500;2023-09-18T23:18:00;16.20;1.00
3424;DHT22;72707;50.120;8.500;2023-09-18T23:20:26;16.20;1.00
3424;DHT22;72707;50.120;8.500;2023-09-18T23:22:54;16.20;1.00
3424;DHT22;72707;50.120;8.500;2023-09-18T23:25:23;16.20;1.00
3424;DHT22;72707;50.120;8.500;2023-09-18T23:27:49;16.20;1.00
3424;DHT22;72707;50.120;8.500;2023-09-18T23:30:21;16.20;1.00
3424;DHT22;72707;50.120;8.500;2023-09-18T23:32:58;16.20;1.00
3424;DHT22;72707;50.120;8.500;2023-09-18T23:35:30;16.20;1.00
3424;DHT22;72707;50.120;8.500;2023-09-18T23:38:06;16.10;1.00
3424;DHT22;72707;50.120;8.500;2023-09-18T23:40:35;16.10;1.00
3424;DHT22;72707;50.120;8.500;2023-09-18T23:43:05;16.10;1.00
3424;DHT22;72707;50.120;8.500;2023-09-18T23:45:40;16.10;1.00
3424;DHT22;72707;50.120;8.500;2023-09-18T23:48:16;16.10;1.00
3424;DHT22;72707;50.120;8.500;2023-09-18T23:50:47;16.10;1.00
3424;DHT22;72707;50.120;8.500;2023-09-18T23:53:14;16.00;1.00
3424;DHT22;72707;50.120;8.500;2023-09-18T23:55:42;16.00;1.00
3424;DHT22;72707;50.120;8.500;2023-09-18T23:58:08;16.00;1.00
